sensor_id;sensor_type;location;lat;lon;timestamp;pressure;altitude;pressure_sealevel;temperature;humidity
61571;BME280;47463;49.884;10.010;2023-04-15T00:00:01;100980;;;4.1;89
61571;BME280;47463;49.884;10.010;2023-04-15T00:05:01;100970;;;3.9;90
61571;BME280;47463;49.884;10.010;2023-04-15T00:10:01;100960;;;3.8;91
61571;BME280;47463;49.884;10.010;2023-04-15T00:15:01;100950;;;3.7;91
61571;BME280;47463;49.884;10.010;2023-04-15T00:20:01;100950;;;3.8;92
61571;BME280;47463;49.884;10.010;2023-04-15T00:25:01;100960;;;3.7;91
61571;BME280;47463;49.884;10.010;2023-04-15T00:30:01;100950;;;3.7;92
61571;BME280;47463;49.884;10.010;2023-04-15T00:35:01;100960;;;4;91
61571;BME280;47463;49.884;10.010;2023-04-15T00:40:01;100950;;;4.2;91
61571;BME280;47463;49.884;10.010;2023-04-15T00:45:01;100950;;;4.3;90
61571;BME280;47463;49.884;10.010;2023-04-15T00:50:01;100940;;;4.5;89
61571;BME280;47463;49.884;10.010;2023-04-15T00:55:01;100940;;;4.4;89
61571;BME280;47463;49.884;10.010;2023-04-15T01:00:01;100940;;;4.5;89
61571;BME280;47463;49.884;10.010;2023-04-15T01:05:01;100940;;;4.3;90
61571;BME280;47463;49.884;10.010;2023-04-15T01:10:01;100940;;;4.5;90
61571;BME280;47463;49.884;10.010;2023-04-15T01:15:01;100950;;;4.4;90
61571;BME280;47463;49.884;10.010;2023-04-15T01:20:01;100940;;;4.6;89
61571;BME280;47463;49.884;10.010;2023-04-15T01:25:05;100950;;;4.7;89
61571;BME280;47463;49.884;10.010;2023-04-15T01:30:01;100950;;;4.6;89
61571;BME280;47463;49.884;10.010;2023-04-15T01:35:01;100940;;;4.5;90
61571;BME280;47463;49.884;10.010;2023-04-15T01:40:01;100940;;;4.6;89
61571;BME280;47463;49.884;10.010;2023-04-15T01:45:01;100930;;;4.7;89
61571;BME280;47463;49.884;10.010;2023-04-15T01:50:01;100930;;;4.7;88
61571;BME280;47463;49.884;10.010;2023-04-15T01:55:01;100920;;;4.7;89
61571;BME280;47463;49.884;10.010;2023-04-15T02:00:01;100930;;;4.7;89
61571;BME280;47463;49.884;10.010;2023-04-15T02:05:01;100930;;;4.9;87
61571;BME280;47463;49.884;10.010;2023-04-15T02:10:01;100930;;;5.1;87
61571;BME280;47463;49.884;10.010;2023-04-15T02:15:01;100930;;;5;87
61571;BME280;47463;49.884;10.010;2023-04-15T02:20:01;100920;;;4.9;87
61571;BME280;47463;49.884;10.010;2023-04-15T02:25:01;100920;;;4.9;87
61571;BME280;47463;49.884;10.010;2023-04-15T02:30:01;100930;;;4.6;89
61571;BME280;47463;49.884;10.010;2023-04-15T02:35:01;100920;;;4.8;88
61571;BME280;47463;49.884;10.010;2023-04-15T02:40:01;100920;;;4.9;88
61571;BME280;47463;49.884;10.010;2023-04-15T02:45:01;100910;;;4.9;87
61571;BME280;47463;49.884;10.010;2023-04-15T02:50:01;100910;;;5;87
61571;BME280;47463;49.884;10.010;2023-04-15T02:55:01;100910;;;5;86
61571;BME280;47463;49.884;10.010;2023-04-15T03:00:01;100910;;;5.1;86
61571;BME280;47463;49.884;10.010;2023-04-15T03:05:01;100910;;;5;86
61571;BME280;47463;49.884;10.010;2023-04-15T03:10:01;100900;;;4.8;87
61571;BME280;47463;49.884;10.010;2023-04-15T03:15:01;100910;;;4.8;87
61571;BME280;47463;49.884;10.010;2023-04-15T03:20:01;100900;;;4.8;87
61571;BME280;47463;49.884;10.010;2023-04-15T03:25:01;100900;;;5;86
61571;BME280;47463;49.884;10.010;2023-04-15T03:30:01;100900;;;5;86
61571;BME280;47463;49.884;10.010;2023-04-15T03:35:01;100900;;;4.9;86
61571;BME280;47463;49.884;10.010;2023-04-15T03:40:01;100900;;;5.1;85
61571;BME280;47463;49.884;10.010;2023-04-15T03:45:01;100910;;;5.1;85
61571;BME280;47463;49.884;10.010;2023-04-15T03:50:01;100900;;;5;85
61571;BME280;47463;49.884;10.010;2023-04-15T03:55:01;100900;;;4.9;85
61571;BME280;47463;49.884;10.010;2023-04-15T04:00:01;100910;;;4.9;85
61571;BME280;47463;49.884;10.010;2023-04-15T04:05:01;100910;;;5;85
61571;BME280;47463;49.884;10.010;2023-04-15T04:10:01;100910;;;5.2;84
61571;BME280;47463;49.884;10.010;2023-04-15T04:15:01;100910;;;5.4;83
61571;BME280;47463;49.884;10.010;2023-04-15T04:20:01;100910;;;5.4;83
61571;BME280;47463;49.884;10.010;2023-04-15T04:25:01;100910;;;5.5;82
61571;BME280;47463;49.884;10.010;2023-04-15T04:30:01;100910;;;5.5;82
61571;BME280;47463;49.884;10.010;2023-04-15T04:35:01;100910;;;5.4;83
61571;BME280;47463;49.884;10.010;2023-04-15T04:40:01;100910;;;5.5;83
61571;BME280;47463;49.884;10.010;2023-04-15T04:45:01;100920;;;5.5;82
61571;BME280;47463;49.884;10.010;2023-04-15T04:50:01;100920;;;5.6;82
61571;BME280;47463;49.884;10.010;2023-04-15T04:55:01;100930;;;5.6;82
61571;BME280;47463;49.884;10.010;2023-04-15T05:00:01;100920;;;5.6;82
61571;BME280;47463;49.884;10.010;2023-04-15T05:05:01;100920;;;5.6;82
61571;BME280;47463;49.884;10.010;2023-04-15T05:10:01;100920;;;5.7;82
61571;BME280;47463;49.884;10.010;2023-04-15T05:15:01;100920;;;5.9;81
61571;BME280;47463;49.884;10.010;2023-04-15T05:20:01;100920;;;6;81
61571;BME280;47463;49.884;10.010;2023-04-15T05:25:01;100920;;;6.1;80
61571;BME280;47463;49.884;10.010;2023-04-15T05:30:01;100920;;;6.2;80
61571;BME280;47463;49.884;10.010;2023-04-15T05:35:01;100930;;;6.3;80
61571;BME280;47463;49.884;10.010;2023-04-15T05:40:01;100920;;;6.4;79
61571;BME280;47463;49.884;10.010;2023-04-15T05:45:01;100920;;;6.5;79
61571;BME280;47463;49.884;10.010;2023-04-15T05:50:01;100930;;;6.7;79
61571;BME280;47463;49.884;10.010;2023-04-15T05:55:01;100940;;;6.8;78
61571;BME280;47463;49.884;10.010;2023-04-15T06:00:01;100940;;;6.9;77
61571;BME280;47463;49.884;10.010;2023-04-15T06:05:01;100940;;;6.9;77
61571;BME280;47463;49.884;10.010;2023-04-15T06:10:01;100930;;;7;77
61571;BME280;47463;49.884;10.010;2023-04-15T06:15:01;100930;;;7.1;77
61571;BME280;47463;49.884;10.010;2023-04-15T06:20:01;100920;;;7.2;77
61571;BME280;47463;49.884;10.010;2023-04-15T06:25:01;100920;;;7.3;76
61571;BME280;47463;49.884;10.010;2023-04-15T06:30:01;100930;;;7.3;76
61571;BME280;47463;49.884;10.010;2023-04-15T06:35:01;100930;;;7.4;76
61571;BME280;47463;49.884;10.010;2023-04-15T06:40:01;100930;;;7.5;76
61571;BME280;47463;49.884;10.010;2023-04-15T06:45:01;100940;;;7.5;76
61571;BME280;47463;49.884;10.010;2023-04-15T06:50:01;100950;;;7.6;75
61571;BME280;47463;49.884;10.010;2023-04-15T06:55:01;100950;;;7.7;75
61571;BME280;47463;49.884;10.010;2023-04-15T07:00:01;100940;;;7.8;75
61571;BME280;47463;49.884;10.010;2023-04-15T07:05:01;100940;;;7.8;75
61571;BME280;47463;49.884;10.010;2023-04-15T07:10:01;100950;;;7.8;74
61571;BME280;47463;49.884;10.010;2023-04-15T07:15:01;100960;;;7.9;74
61571;BME280;47463;49.884;10.010;2023-04-15T07:20:01;100960;;;7.8;74
61571;BME280;47463;49.884;10.010;2023-04-15T07:25:01;100960;;;7.9;74
61571;BME280;47463;49.884;10.010;2023-04-15T07:30:01;100960;;;7.9;74
61571;BME280;47463;49.884;10.010;2023-04-15T07:35:01;100960;;;7.9;74
61571;BME280;47463;49.884;10.010;2023-04-15T07:40:01;100970;;;8;74
61571;BME280;47463;49.884;10.010;2023-04-15T07:45:01;100960;;;8;73
61571;BME280;47463;49.884;10.010;2023-04-15T07:50:01;100960;;;8.1;73
61571;BME280;47463;49.884;10.010;2023-04-15T07:55:01;100960;;;8.2;73
61571;BME280;47463;49.884;10.010;2023-04-15T08:00:01;100960;;;8.3;73
61571;BME280;47463;49.884;10.010;2023-04-15T08:05:01;100970;;;8.3;72
61571;BME280;47463;49.884;10.010;2023-04-15T08:10:01;100970;;;8.2;72
61571;BME280;47463;49.884;10.010;2023-04-15T08:15:01;100970;;;8.3;72
61571;BME280;47463;49.884;10.010;2023-04-15T08:20:01;100980;;;8.3;72
61571;BME280;47463;49.884;10.010;2023-04-15T08:25:01;100990;;;8.3;72
61571;BME280;47463;49.884;10.010;2023-04-15T08:30:01;100990;;;8.3;71
61571;BME280;47463;49.884;10.010;2023-04-15T08:35:01;100990;;;8.2;72
61571;BME280;47463;49.884;10.010;2023-04-15T08:40:01;101000;;;8.4;72
61571;BME280;47463;49.884;10.010;2023-04-15T08:45:01;101010;;;8.3;72
61571;BME280;47463;49.884;10.010;2023-04-15T08:50:01;101010;;;8.1;72
61571;BME280;47463;49.884;10.010;2023-04-15T08:55:01;101020;;;8.1;73
61571;BME280;47463;49.884;10.010;2023-04-15T09:00:01;101020;;;7.7;74
61571;BME280;47463;49.884;10.010;2023-04-15T09:05:01;101030;;;7.6;76
61571;BME280;47463;49.884;10.010;2023-04-15T09:10:01;101020;;;7.3;76
61571;BME280;47463;49.884;10.010;2023-04-15T09:15:01;101030;;;7.1;76
61571;BME280;47463;49.884;10.010;2023-04-15T09:20:09;101030;;;6.9;77
61571;BME280;47463;49.884;10.010;2023-04-15T09:25:01;101020;;;6.9;78
61571;BME280;47463;49.884;10.010;2023-04-15T09:30:01;101020;;;6.7;78
61571;BME280;47463;49.884;10.010;2023-04-15T09:35:09;101030;;;6.7;78
61571;BME280;47463;49.884;10.010;2023-04-15T09:40:01;101030;;;6.8;80
61571;BME280;47463;49.884;10.010;2023-04-15T09:45:07;101030;;;6.8;80
61571;BME280;47463;49.884;10.010;2023-04-15T09:50:01;101020;;;6.9;79
61571;BME280;47463;49.884;10.010;2023-04-15T09:55:01;101020;;;6.9;79
61571;BME280;47463;49.884;10.010;2023-04-15T10:00:01;101030;;;6.9;79
61571;BME280;47463;49.884;10.010;2023-04-15T10:05:01;101020;;;6.9;78
61571;BME280;47463;49.884;10.010;2023-04-15T10:10:01;101020;;;6.9;79
61571;BME280;47463;49.884;10.010;2023-04-15T10:15:02;101020;;;7;79
61571;BME280;47463;49.884;10.010;2023-04-15T10:20:01;101020;;;7.1;78
61571;BME280;47463;49.884;10.010;2023-04-15T10:25:01;101010;;;7.2;78
61571;BME280;47463;49.884;10.010;2023-04-15T10:30:01;101030;;;7.3;78
61571;BME280;47463;49.884;10.010;2023-04-15T10:35:01;101030;;;7.4;79
61571;BME280;47463;49.884;10.010;2023-04-15T10:40:04;101030;;;7.4;79
61571;BME280;47463;49.884;10.010;2023-04-15T10:45:01;101040;;;7.4;79
61571;BME280;47463;49.884;10.010;2023-04-15T10:50:01;101040;;;7.4;79
61571;BME280;47463;49.884;10.010;2023-04-15T10:55:01;101040;;;7.3;80
61571;BME280;47463;49.884;10.010;2023-04-15T11:00:03;101050;;;7.2;81
61571;BME280;47463;49.884;10.010;2023-04-15T11:05:01;101050;;;7.2;81
61571;BME280;47463;49.884;10.010;2023-04-15T11:10:01;101060;;;7.2;81
61571;BME280;47463;49.884;10.010;2023-04-15T11:15:23;101060;;;7.3;82
61571;BME280;47463;49.884;10.010;2023-04-15T11:20:01;101060;;;7.2;82
61571;BME280;47463;49.884;10.010;2023-04-15T11:25:01;101060;;;7.3;83
61571;BME280;47463;49.884;10.010;2023-04-15T11:30:01;101080;;;7.3;84
61571;BME280;47463;49.884;10.010;2023-04-15T11:35:01;101070;;;7.3;84
61571;BME280;47463;49.884;10.010;2023-04-15T11:40:01;101080;;;7.3;84
61571;BME280;47463;49.884;10.010;2023-04-15T11:45:08;101080;;;7.3;84
61571;BME280;47463;49.884;10.010;2023-04-15T11:50:16;101090;;;7.3;85
61571;BME280;47463;49.884;10.010;2023-04-15T11:55:01;101090;;;7.3;85
61571;BME280;47463;49.884;10.010;2023-04-15T12:00:01;101100;;;7.3;85
61571;BME280;47463;49.884;10.010;2023-04-15T12:05:02;101100;;;7.3;85
61571;BME280;47463;49.884;10.010;2023-04-15T12:10:01;101110;;;7.2;85
61571;BME280;47463;49.884;10.010;2023-04-15T12:15:01;101120;;;7.2;85
61571;BME280;47463;49.884;10.010;2023-04-15T12:20:01;101120;;;7.2;85
61571;BME280;47463;49.884;10.010;2023-04-15T12:25:01;101120;;;7.3;85
61571;BME280;47463;49.884;10.010;2023-04-15T12:30:03;101120;;;7.3;85
61571;BME280;47463;49.884;10.010;2023-04-15T12:35:01;101130;;;7.2;85
61571;BME280;47463;49.884;10.010;2023-04-15T12:40:01;101140;;;7.2;84
61571;BME280;47463;49.884;10.010;2023-04-15T12:45:01;101150;;;7.2;85
61571;BME280;47463;49.884;10.010;2023-04-15T12:50:01;101150;;;7.1;86
61571;BME280;47463;49.884;10.010;2023-04-15T12:55:01;101150;;;7.2;86
61571;BME280;47463;49.884;10.010;2023-04-15T13:00:01;101160;;;7.2;86
61571;BME280;47463;49.884;10.010;2023-04-15T13:05:01;101150;;;7.3;87
61571;BME280;47463;49.884;10.010;2023-04-15T13:10:01;101160;;;7.5;86
61571;BME280;47463;49.884;10.010;2023-04-15T13:15:01;101160;;;7.6;86
61571;BME280;47463;49.884;10.010;2023-04-15T13:20:01;101160;;;7.6;86
61571;BME280;47463;49.884;10.010;2023-04-15T13:25:01;101160;;;7.5;85
61571;BME280;47463;49.884;10.010;2023-04-15T13:30:01;101170;;;7.6;85
61571;BME280;47463;49.884;10.010;2023-04-15T13:35:01;101160;;;7.7;85
61571;BME280;47463;49.884;10.010;2023-04-15T13:40:01;101180;;;7.8;85
61571;BME280;47463;49.884;10.010;2023-04-15T13:45:01;101180;;;7.7;85
61571;BME280;47463;49.884;10.010;2023-04-15T13:50:01;101190;;;7.6;85
61571;BME280;47463;49.884;10.010;2023-04-15T13:55:01;101200;;;7.6;86
61571;BME280;47463;49.884;10.010;2023-04-15T14:00:01;101200;;;7.5;86
61571;BME280;47463;49.884;10.010;2023-04-15T14:05:01;101190;;;7.6;86
61571;BME280;47463;49.884;10.010;2023-04-15T14:10:01;101200;;;7.5;85
61571;BME280;47463;49.884;10.010;2023-04-15T14:15:01;101210;;;7.6;85
61571;BME280;47463;49.884;10.010;2023-04-15T14:20:01;101210;;;7.6;85
61571;BME280;47463;49.884;10.010;2023-04-15T14:25:01;101230;;;7.6;85
61571;BME280;47463;49.884;10.010;2023-04-15T14:30:01;101240;;;7.5;85
61571;BME280;47463;49.884;10.010;2023-04-15T14:35:01;101240;;;7.5;85
61571;BME280;47463;49.884;10.010;2023-04-15T14:40:01;101250;;;7.4;86
61571;BME280;47463;49.884;10.010;2023-04-15T14:45:01;101260;;;7.4;87
61571;BME280;47463;49.884;10.010;2023-04-15T14:50:01;101260;;;7.4;87
61571;BME280;47463;49.884;10.010;2023-04-15T14:55:01;101270;;;7.4;87
61571;BME280;47463;49.884;10.010;2023-04-15T15:00:01;101270;;;7.4;87
61571;BME280;47463;49.884;10.010;2023-04-15T15:05:01;101280;;;7.4;87
61571;BME280;47463;49.884;10.010;2023-04-15T15:10:01;101280;;;7.5;88
61571;BME280;47463;49.884;10.010;2023-04-15T15:15:01;101290;;;7.4;88
61571;BME280;47463;49.884;10.010;2023-04-15T15:20:01;101290;;;7.4;88
61571;BME280;47463;49.884;10.010;2023-04-15T15:25:01;101290;;;7.4;89
61571;BME280;47463;49.884;10.010;2023-04-15T15:30:01;101300;;;7.4;89
61571;BME280;47463;49.884;10.010;2023-04-15T15:35:01;101310;;;7.3;89
61571;BME280;47463;49.884;10.010;2023-04-15T15:40:01;101320;;;7.3;89
61571;BME280;47463;49.884;10.010;2023-04-15T15:45:01;101320;;;7.2;89
61571;BME280;47463;49.884;10.010;2023-04-15T15:50:01;101330;;;7.2;89
61571;BME280;47463;49.884;10.010;2023-04-15T15:55:01;101340;;;7.2;89
61571;BME280;47463;49.884;10.010;2023-04-15T16:00:01;101340;;;7.2;89
61571;BME280;47463;49.884;10.010;2023-04-15T16:05:01;101340;;;7.2;89
61571;BME280;47463;49.884;10.010;2023-04-15T16:10:01;101350;;;7.2;89
61571;BME280;47463;49.884;10.010;2023-04-15T16:15:01;101360;;;7.2;89
61571;BME280;47463;49.884;10.010;2023-04-15T16:20:01;101360;;;7.2;89
61571;BME280;47463;49.884;10.010;2023-04-15T16:25:01;101370;;;7.2;89
61571;BME280;47463;49.884;10.010;2023-04-15T16:30:01;101360;;;7.1;89
61571;BME280;47463;49.884;10.010;2023-04-15T16:35:01;101370;;;7.1;90
61571;BME280;47463;49.884;10.010;2023-04-15T16:40:01;101370;;;7.1;90
61571;BME280;47463;49.884;10.010;2023-04-15T16:45:01;101380;;;7;90
61571;BME280;47463;49.884;10.010;2023-04-15T16:50:01;101380;;;7;90
61571;BME280;47463;49.884;10.010;2023-04-15T16:55:01;101390;;;7;90
61571;BME280;47463;49.884;10.010;2023-04-15T17:00:01;101390;;;7;90
61571;BME280;47463;49.884;10.010;2023-04-15T17:05:01;101390;;;7;90
61571;BME280;47463;49.884;10.010;2023-04-15T17:10:01;101410;;;7;90
61571;BME280;47463;49.884;10.010;2023-04-15T17:15:01;101410;;;7.1;90
61571;BME280;47463;49.884;10.010;2023-04-15T17:20:01;101420;;;7;90
61571;BME280;47463;49.884;10.010;2023-04-15T17:25:01;101420;;;7;90
61571;BME280;47463;49.884;10.010;2023-04-15T17:30:01;101430;;;7;90
61571;BME280;47463;49.884;10.010;2023-04-15T17:35:02;101430;;;7;90
61571;BME280;47463;49.884;10.010;2023-04-15T17:40:01;101440;;;7;90
61571;BME280;47463;49.884;10.010;2023-04-15T17:45:01;101450;;;7;91
61571;BME280;47463;49.884;10.010;2023-04-15T17:50:01;101450;;;7;91
61571;BME280;47463;49.884;10.010;2023-04-15T17:55:01;101450;;;6.9;91
61571;BME280;47463;49.884;10.010;2023-04-15T18:00:01;101470;;;6.9;91
61571;BME280;47463;49.884;10.010;2023-04-15T18:05:01;101480;;;6.9;91
61571;BME280;47463;49.884;10.010;2023-04-15T18:10:01;101480;;;6.9;91
61571;BME280;47463;49.884;10.010;2023-04-15T18:15:01;101480;;;6.9;91
61571;BME280;47463;49.884;10.010;2023-04-15T18:20:01;101490;;;6.9;91
61571;BME280;47463;49.884;10.010;2023-04-15T18:25:01;101490;;;6.9;91
61571;BME280;47463;49.884;10.010;2023-04-15T18:30:01;101490;;;6.9;91
61571;BME280;47463;49.884;10.010;2023-04-15T18:35:01;101510;;;6.9;91
61571;BME280;47463;49.884;10.010;2023-04-15T18:40:01;101510;;;6.9;91
61571;BME280;47463;49.884;10.010;2023-04-15T18:45:01;101520;;;6.9;91
61571;BME280;47463;49.884;10.010;2023-04-15T18:50:01;101530;;;6.9;91
61571;BME280;47463;49.884;10.010;2023-04-15T18:55:01;101530;;;6.9;91
61571;BME280;47463;49.884;10.010;2023-04-15T19:00:01;101540;;;6.9;91
61571;BME280;47463;49.884;10.010;2023-04-15T19:05:01;101550;;;6.9;91
61571;BME280;47463;49.884;10.010;2023-04-15T19:10:01;101550;;;6.9;91
61571;BME280;47463;49.884;10.010;2023-04-15T19:15:01;101560;;;6.9;91
61571;BME280;47463;49.884;10.010;2023-04-15T19:20:01;101570;;;6.9;91
61571;BME280;47463;49.884;10.010;2023-04-15T19:25:01;101570;;;6.9;91
61571;BME280;47463;49.884;10.010;2023-04-15T19:30:01;101580;;;6.9;92
61571;BME280;47463;49.884;10.010;2023-04-15T19:35:01;101590;;;6.9;92
61571;BME280;47463;49.884;10.010;2023-04-15T19:40:01;101600;;;6.9;92
61571;BME280;47463;49.884;10.010;2023-04-15T19:45:01;101600;;;6.9;92
61571;BME280;47463;49.884;10.010;2023-04-15T19:50:01;101600;;;7;92
61571;BME280;47463;49.884;10.010;2023-04-15T19:55:01;101600;;;7;92
61571;BME280;47463;49.884;10.010;2023-04-15T20:00:01;101600;;;7;92
61571;BME280;47463;49.884;10.010;2023-04-15T20:05:01;101610;;;7;92
61571;BME280;47463;49.884;10.010;2023-04-15T20:10:01;101600;;;7;92
61571;BME280;47463;49.884;10.010;2023-04-15T20:15:01;101620;;;7;92
61571;BME280;47463;49.884;10.010;2023-04-15T20:20:01;101620;;;7.1;92
61571;BME280;47463;49.884;10.010;2023-04-15T20:25:01;101620;;;7.1;92
61571;BME280;47463;49.884;10.010;2023-04-15T20:30:01;101620;;;7.1;92
61571;BME280;47463;49.884;10.010;2023-04-15T20:35:01;101620;;;7.1;92
61571;BME280;47463;49.884;10.010;2023-04-15T20:40:01;101620;;;7.1;92
61571;BME280;47463;49.884;10.010;2023-04-15T20:45:01;101620;;;7.1;92
61571;BME280;47463;49.884;10.010;2023-04-15T20:50:01;101620;;;7.2;92
61571;BME280;47463;49.884;10.010;2023-04-15T20:55:01;101630;;;7.2;92
61571;BME280;47463;49.884;10.010;2023-04-15T21:00:01;101630;;;7.2;92
61571;BME280;47463;49.884;10.010;2023-04-15T21:05:01;101630;;;7.2;92
61571;BME280;47463;49.884;10.010;2023-04-15T21:10:01;101630;;;7.2;92
61571;BME280;47463;49.884;10.010;2023-04-15T21:15:01;101630;;;7.3;92
61571;BME280;47463;49.884;10.010;2023-04-15T21:20:01;101650;;;7.3;92
61571;BME280;47463;49.884;10.010;2023-04-15T21:25:01;101650;;;7.3;92
61571;BME280;47463;49.884;10.010;2023-04-15T21:30:01;101650;;;7.3;92
61571;BME280;47463;49.884;10.010;2023-04-15T21:35:01;101650;;;7.3;92
61571;BME280;47463;49.884;10.010;2023-04-15T21:40:01;101650;;;7.3;92
61571;BME280;47463;49.884;10.010;2023-04-15T21:45:01;101660;;;7.3;92
61571;BME280;47463;49.884;10.010;2023-04-15T21:50:01;101670;;;7.4;92
61571;BME280;47463;49.884;10.010;2023-04-15T21:55:01;101670;;;7.4;92
61571;BME280;47463;49.884;10.010;2023-04-15T22:00:01;101680;;;7.4;92
61571;BME280;47463;49.884;10.010;2023-04-15T22:05:01;101680;;;7.4;92
61571;BME280;47463;49.884;10.010;2023-04-15T22:10:01;101680;;;7.4;92
61571;BME280;47463;49.884;10.010;2023-04-15T22:15:01;101690;;;7.4;92
61571;BME280;47463;49.884;10.010;2023-04-15T22:20:01;101690;;;7.4;92
61571;BME280;47463;49.884;10.010;2023-04-15T22:25:01;101690;;;7.4;92
61571;BME280;47463;49.884;10.010;2023-04-15T22:30:01;101690;;;7.4;92
61571;BME280;47463;49.884;10.010;2023-04-15T22:35:01;101690;;;7.5;92
61571;BME280;47463;49.884;10.010;2023-04-15T22:40:01;101700;;;7.5;92
61571;BME280;47463;49.884;10.010;2023-04-15T22:45:01;101720;;;7.5;92
61571;BME280;47463;49.884;10.010;2023-04-15T22:50:01;101720;;;7.5;92
61571;BME280;47463;49.884;10.010;2023-04-15T22:55:01;101730;;;7.5;92
61571;BME280;47463;49.884;10.010;2023-04-15T23:00:01;101730;;;7.5;92
61571;BME280;47463;49.884;10.010;2023-04-15T23:05:01;101720;;;7.6;92
61571;BME280;47463;49.884;10.010;2023-04-15T23:10:01;101720;;;7.6;92
61571;BME280;47463;49.884;10.010;2023-04-15T23:15:01;101730;;;7.6;92
61571;BME280;47463;49.884;10.010;2023-04-15T23:20:01;101730;;;7.6;92
61571;BME280;47463;49.884;10.010;2023-04-15T23:25:01;101730;;;7.6;92
61571;BME280;47463;49.884;10.010;2023-04-15T23:30:01;101740;;;7.6;92
61571;BME280;47463;49.884;10.010;2023-04-15T23:35:01;101740;;;7.6;92
61571;BME280;47463;49.884;10.010;2023-04-15T23:40:01;101740;;;7.6;92
61571;BME280;47463;49.884;10.010;2023-04-15T23:45:01;101740;;;7.7;92
61571;BME280;47463;49.884;10.010;2023-04-15T23:50:01;101740;;;7.6;92
61571;BME280;47463;49.884;10.010;2023-04-15T23:55:01;101730;;;7.6;92
